createdAt,value
2022-12-01T00:02:38.314Z,100.00
2022-12-01T00:06:39.337Z,100.00
2022-12-01T00:10:41.082Z,100.00
2022-12-01T00:14:40.551Z,100.00
2022-12-01T00:18:40.366Z,100.00
2022-12-01T00:22:40.019Z,100.00
2022-12-01T00:26:41.665Z,100.00
2022-12-01T00:30:41.155Z,100.00
2022-12-01T00:34:40.587Z,100.00
2022-12-01T00:38:40.097Z,100.00
2022-12-01T00:42:41.676Z,100.00
2022-12-01T00:46:43.736Z,100.00
2022-12-01T00:50:43.527Z,99.15
2022-12-01T00:54:43.634Z,98.05
2022-12-01T00:58:45.225Z,97.86
2022-12-01T01:02:45.115Z,98.56
2022-12-01T01:06:44.528Z,98.56
2022-12-01T01:10:45.494Z,98.78
2022-12-01T01:14:47.611Z,98.87
2022-12-01T01:18:47.226Z,98.50
2022-12-01T01:22:46.379Z,98.63
2022-12-01T01:26:45.847Z,98.40
2022-12-01T01:30:47.613Z,98.23
2022-12-01T01:34:47.636Z,96.97
2022-12-01T01:38:47.902Z,97.34
2022-12-01T01:42:46.839Z,97.51
2022-12-01T01:46:48.497Z,98.14
2022-12-01T01:50:48.050Z,97.93
2022-12-01T01:54:51.682Z,97.70
2022-12-01T01:58:52.435Z,98.90
2022-12-01T02:02:55.717Z,99.48
2022-12-01T02:06:56.168Z,100.00
2022-12-01T02:11:24.584Z,100.00
2022-12-01T02:15:32.786Z,100.00
2022-12-01T02:19:53.951Z,100.00
2022-12-01T02:24:23.219Z,100.00
2022-12-01T02:28:50.122Z,100.00
2022-12-01T02:33:04.253Z,100.00
2022-12-01T02:37:12.179Z,100.00
2022-12-01T02:41:19.710Z,100.00
2022-12-01T02:45:24.929Z,100.00
2022-12-01T02:49:32.403Z,100.00
2022-12-01T02:53:32.125Z,100.00
2022-12-01T02:57:32.396Z,100.00
2022-12-01T03:02:02.436Z,100.00
2022-12-01T03:06:13.470Z,100.00
2022-12-01T03:10:21.683Z,100.00
2022-12-01T03:14:31.629Z,100.00
2022-12-01T03:18:38.128Z,100.00
2022-12-01T03:22:46.379Z,100.00
2022-12-01T03:26:51.433Z,100.00
2022-12-01T03:30:55.154Z,100.00
2022-12-01T03:34:58.393Z,100.00
2022-12-01T03:39:02.488Z,100.00
2022-12-01T03:43:07.010Z,100.00
2022-12-01T03:47:10.386Z,100.00
2022-12-01T03:51:17.678Z,100.00
2022-12-01T03:55:23.847Z,100.00
2022-12-01T03:59:25.922Z,100.00
2022-12-01T04:03:27.773Z,100.00
2022-12-01T04:07:27.566Z,100.00
2022-12-01T04:11:46.936Z,100.00
2022-12-01T04:15:47.015Z,100.00
2022-12-01T04:19:46.891Z,100.00
2022-12-01T04:24:04.929Z,100.00
2022-12-01T04:28:06.952Z,100.00
2022-12-01T04:32:06.328Z,100.00
2022-12-01T04:36:06.306Z,100.00
2022-12-01T04:40:06.515Z,100.00
2022-12-01T04:44:08.113Z,100.00
2022-12-01T04:48:07.452Z,100.00
2022-12-01T04:52:09.927Z,100.00
2022-12-01T04:56:09.818Z,100.00
2022-12-01T05:00:13.023Z,100.00
2022-12-01T05:04:14.249Z,100.00
2022-12-01T05:08:14.148Z,100.00
2022-12-01T05:12:14.005Z,100.00
2022-12-01T05:16:17.625Z,100.00
2022-12-01T05:20:38.033Z,100.00
2022-12-01T05:24:37.697Z,100.00
2022-12-01T05:28:38.377Z,100.00
2022-12-01T05:32:40.304Z,100.00
2022-12-01T05:36:40.215Z,100.00
2022-12-01T05:40:40.447Z,100.00
2022-12-01T05:44:40.211Z,100.00
2022-12-01T05:48:41.821Z,100.00
2022-12-01T05:52:41.627Z,100.00
2022-12-01T05:56:41.328Z,100.00
2022-12-01T06:00:45.669Z,100.00
2022-12-01T06:04:48.293Z,100.00
2022-12-01T06:08:48.287Z,100.00
2022-12-01T06:12:47.623Z,100.00
2022-12-01T06:16:47.470Z,100.00
2022-12-01T06:20:49.569Z,100.00
2022-12-01T06:24:49.322Z,100.00
2022-12-01T06:28:49.183Z,100.00
2022-12-01T06:32:48.841Z,100.00
2022-12-01T06:36:50.319Z,100.00
2022-12-01T06:40:50.457Z,100.00
2022-12-01T06:44:50.199Z,100.00
2022-12-01T06:48:50.550Z,100.00
2022-12-01T06:52:53.581Z,100.00
2022-12-01T06:56:56.157Z,100.00
2022-12-01T07:00:57.010Z,100.00
2022-12-01T07:04:56.642Z,100.00
2022-12-01T07:08:59.410Z,100.00
2022-12-01T07:12:59.393Z,100.00
2022-12-01T07:16:59.324Z,100.00
2022-12-01T07:21:02.873Z,100.00
2022-12-01T07:25:04.812Z,100.00
2022-12-01T07:29:04.648Z,100.00
2022-12-01T07:33:04.337Z,100.00
2022-12-01T07:37:03.608Z,100.00
2022-12-01T07:41:10.758Z,100.00
2022-12-01T07:45:11.148Z,100.00
2022-12-01T07:49:14.648Z,100.00
2022-12-01T07:53:14.309Z,100.00
2022-12-01T07:57:17.805Z,100.00
2022-12-01T08:01:19.378Z,100.00
2022-12-01T08:05:19.425Z,100.00
2022-12-01T08:09:19.234Z,100.00
2022-12-01T08:13:21.874Z,100.00
2022-12-01T08:17:21.803Z,100.00
2022-12-01T08:21:22.878Z,100.00
2022-12-01T08:25:22.377Z,100.00
2022-12-01T08:29:24.137Z,100.00
2022-12-01T08:33:24.079Z,100.00
2022-12-01T08:37:23.627Z,100.00
2022-12-01T08:41:24.338Z,100.00
2022-12-01T08:45:26.447Z,100.00
2022-12-01T08:49:26.224Z,100.00
2022-12-01T08:53:26.122Z,100.00
2022-12-01T08:57:25.810Z,100.00
2022-12-01T09:01:27.957Z,100.00
2022-12-01T09:05:27.756Z,100.00
2022-12-01T09:09:29.540Z,100.00
2022-12-01T09:13:30.016Z,100.00
2022-12-01T09:17:31.402Z,100.00
2022-12-01T09:21:32.756Z,100.00
2022-12-01T09:25:32.541Z,100.00
2022-12-01T09:29:33.183Z,100.00
2022-12-01T09:33:35.446Z,100.00
2022-12-01T09:37:35.188Z,100.00
2022-12-01T09:41:39.320Z,100.00
2022-12-01T09:45:45.387Z,100.00
2022-12-01T09:49:55.348Z,100.00
2022-12-01T09:54:00.088Z,100.00
2022-12-01T09:58:02.063Z,100.00
2022-12-01T10:02:04.828Z,100.00
2022-12-01T10:06:30.231Z,100.00
2022-12-01T10:10:32.437Z,100.00
2022-12-01T10:14:36.055Z,100.00
2022-12-01T10:18:48.594Z,100.00
2022-12-01T10:23:19.003Z,100.00
2022-12-01T10:27:28.558Z,100.00
2022-12-01T10:31:34.136Z,100.00
2022-12-01T10:35:37.288Z,100.00
2022-12-01T10:39:42.009Z,100.00
2022-12-01T10:43:46.103Z,100.00
2022-12-01T10:48:12.946Z,100.00
2022-12-01T10:52:34.881Z,100.00
2022-12-01T10:56:43.779Z,100.00
2022-12-01T11:00:59.707Z,100.00
2022-12-01T11:05:03.440Z,100.00
2022-12-01T11:09:05.851Z,100.00
2022-12-01T11:13:27.992Z,100.00
2022-12-01T11:17:31.569Z,100.00
2022-12-01T11:21:31.836Z,100.00
2022-12-01T11:25:32.077Z,100.00
2022-12-01T11:29:39.836Z,100.00
2022-12-01T11:33:49.047Z,100.00
2022-12-01T11:38:21.128Z,100.00
2022-12-01T11:42:27.788Z,100.00
2022-12-01T11:46:36.984Z,100.00
2022-12-01T11:50:39.197Z,100.00
2022-12-01T11:54:39.047Z,100.00
2022-12-01T11:58:38.344Z,100.00
2022-12-01T12:02:51.123Z,100.00
2022-12-01T12:07:00.471Z,100.00
2022-12-01T12:11:12.729Z,100.00
2022-12-01T12:15:27.000Z,100.00
2022-12-01T12:24:40.401Z,100.00
2022-12-01T12:28:59.234Z,100.00
2022-12-01T12:33:31.218Z,100.00
2022-12-01T12:37:45.895Z,100.00
2022-12-01T12:41:49.610Z,100.00
2022-12-01T12:45:59.957Z,100.00
2022-12-01T12:50:08.312Z,100.00
2022-12-01T12:54:21.158Z,100.00
2022-12-01T12:58:27.538Z,100.00
2022-12-01T13:02:33.767Z,100.00
2022-12-01T13:06:39.368Z,100.00
2022-12-01T13:10:48.849Z,100.00
2022-12-01T13:14:57.780Z,100.00
2022-12-01T13:19:06.119Z,100.00
2022-12-01T13:23:07.449Z,100.00
2022-12-01T13:27:18.136Z,100.00
2022-12-01T13:31:19.409Z,100.00
2022-12-01T13:35:28.349Z,100.00
2022-12-01T13:39:35.147Z,100.00
2022-12-01T13:43:40.813Z,100.00
2022-12-01T13:47:50.449Z,100.00
2022-12-01T13:52:34.988Z,100.00
2022-12-01T13:56:41.272Z,100.00
2022-12-01T14:00:43.162Z,100.00
2022-12-01T14:04:42.812Z,100.00
2022-12-01T14:08:50.175Z,100.00
2022-12-01T14:12:51.032Z,100.00
2022-12-01T14:16:55.365Z,100.00
2022-12-01T14:20:55.117Z,100.00
2022-12-01T14:24:55.034Z,100.00
2022-12-01T14:29:29.075Z,100.00
2022-12-01T14:33:56.522Z,100.00
2022-12-01T14:37:56.212Z,100.00
2022-12-01T14:42:00.516Z,100.00
2022-12-01T14:46:08.949Z,100.00
2022-12-01T14:50:19.128Z,100.00
2022-12-01T14:54:24.250Z,100.00
2022-12-01T14:58:27.315Z,100.00
2022-12-01T15:02:27.160Z,100.00
2022-12-01T15:06:31.906Z,100.00
2022-12-01T15:10:34.938Z,100.00
2022-12-01T15:14:36.953Z,100.00
2022-12-01T15:18:38.676Z,100.00
2022-12-01T15:22:43.228Z,100.00
2022-12-01T15:26:50.835Z,100.00
2022-12-01T15:30:54.774Z,100.00
2022-12-01T15:35:01.403Z,100.00
2022-12-01T15:39:07.017Z,100.00
2022-12-01T15:43:15.130Z,100.00
2022-12-01T15:47:35.803Z,100.00
2022-12-01T15:51:35.687Z,100.00
2022-12-01T15:55:40.395Z,100.00
2022-12-01T15:59:42.182Z,100.00
2022-12-01T16:03:55.804Z,100.00
2022-12-01T16:12:26.005Z,100.00
2022-12-01T16:16:46.480Z,100.00
2022-12-01T16:20:46.378Z,100.00
2022-12-01T16:24:50.538Z,100.00
2022-12-01T16:28:52.493Z,100.00
2022-12-01T16:32:51.994Z,100.00
2022-12-01T16:36:54.921Z,100.00
2022-12-01T16:40:56.507Z,100.00
2022-12-01T16:44:58.240Z,100.00
2022-12-01T16:48:57.789Z,100.00
2022-12-01T16:52:57.300Z,100.00
2022-12-01T16:56:57.096Z,100.00
2022-12-01T17:00:59.491Z,100.00
2022-12-01T17:04:58.700Z,100.00
2022-12-01T17:08:58.306Z,100.00
2022-12-01T17:12:57.549Z,100.00
2022-12-01T17:16:58.836Z,100.00
2022-12-01T17:21:00.108Z,100.00
2022-12-01T17:25:01.984Z,100.00
2022-12-01T17:29:02.055Z,100.00
2022-12-01T17:33:03.624Z,100.00
2022-12-01T17:37:03.044Z,100.00
2022-12-01T17:41:07.479Z,100.00
2022-12-01T17:45:08.349Z,100.00
2022-12-01T17:49:11.716Z,100.00
2022-12-01T17:53:11.679Z,100.00
2022-12-01T17:57:14.854Z,100.00
2022-12-01T18:01:17.087Z,100.00
2022-12-01T18:05:19.907Z,100.00
2022-12-01T18:09:20.159Z,100.00
2022-12-01T18:13:21.460Z,100.00
2022-12-01T18:17:21.570Z,100.00
2022-12-01T18:21:24.976Z,100.00
2022-12-01T18:25:24.432Z,100.00
2022-12-01T18:29:26.121Z,100.00
2022-12-01T18:33:26.431Z,100.00
2022-12-01T18:37:28.735Z,100.00
2022-12-01T18:41:28.773Z,100.00
2022-12-01T18:45:28.498Z,100.00
2022-12-01T18:49:28.592Z,100.00
2022-12-01T18:53:30.667Z,100.00
2022-12-01T18:57:30.799Z,100.00
2022-12-01T19:01:33.637Z,100.00
2022-12-01T19:05:33.432Z,100.00
2022-12-01T19:09:35.109Z,100.00
2022-12-01T19:13:35.620Z,100.00
2022-12-01T19:17:35.433Z,100.00
2022-12-01T19:21:35.205Z,100.00
2022-12-01T19:25:38.474Z,100.00
2022-12-01T19:29:38.236Z,100.00
2022-12-01T19:33:38.173Z,100.00
2022-12-01T19:37:37.910Z,100.00
2022-12-01T19:41:39.869Z,100.00
2022-12-01T19:45:40.145Z,100.00
2022-12-01T19:49:40.915Z,100.00
2022-12-01T19:53:40.277Z,100.00
2022-12-01T19:57:42.407Z,100.00
2022-12-01T20:01:43.302Z,100.00
2022-12-01T20:05:43.399Z,100.00
2022-12-01T20:09:49.575Z,100.00
2022-12-01T20:13:52.263Z,100.00
2022-12-01T20:17:54.892Z,100.00
2022-12-01T20:21:54.607Z,100.00
2022-12-01T20:25:54.149Z,100.00
2022-12-01T20:29:56.414Z,100.00
2022-12-01T20:33:59.322Z,100.00
2022-12-01T20:37:58.539Z,100.00
2022-12-01T20:41:58.418Z,100.00
2022-12-01T20:46:01.039Z,100.00
2022-12-01T20:50:01.358Z,100.00
2022-12-01T20:54:26.667Z,100.00
2022-12-01T20:58:22.198Z,100.00
2022-12-01T21:02:24.555Z,100.00
2022-12-01T21:06:24.836Z,100.00
2022-12-01T21:10:24.649Z,100.00
2022-12-01T21:14:29.942Z,100.00
2022-12-01T21:18:37.937Z,100.00
2022-12-01T21:22:38.129Z,100.00
2022-12-01T21:26:38.565Z,100.00
2022-12-01T21:30:38.357Z,100.00
2022-12-01T21:34:39.948Z,100.00
2022-12-01T21:38:39.987Z,100.00
2022-12-01T21:42:39.788Z,100.00
2022-12-01T21:46:42.078Z,100.00
2022-12-01T21:50:46.980Z,100.00
2022-12-01T21:54:49.643Z,100.00
2022-12-01T21:59:01.557Z,100.00
2022-12-01T22:03:27.871Z,100.00
2022-12-01T22:07:34.268Z,100.00
2022-12-01T22:11:34.355Z,100.00
2022-12-01T22:15:41.851Z,100.00
2022-12-01T22:19:45.288Z,100.00
2022-12-01T22:23:47.489Z,100.00
2022-12-01T22:27:47.810Z,100.00
2022-12-01T22:31:48.258Z,100.00
2022-12-01T22:35:50.243Z,100.00
2022-12-01T22:39:59.413Z,100.00
2022-12-01T22:44:03.680Z,100.00
2022-12-01T22:48:04.312Z,100.00
2022-12-01T22:52:07.711Z,100.00
2022-12-01T22:56:34.679Z,100.00
2022-12-01T23:00:35.424Z,100.00
2022-12-01T23:04:40.391Z,100.00
2022-12-01T23:08:41.096Z,100.00
2022-12-01T23:12:43.991Z,100.00
2022-12-01T23:16:43.711Z,100.00
2022-12-01T23:20:45.184Z,100.00
2022-12-01T23:24:45.328Z,100.00
2022-12-01T23:28:47.939Z,100.00
2022-12-01T23:32:50.838Z,100.00
2022-12-01T23:36:52.301Z,100.00
2022-12-01T23:40:54.026Z,100.00
2022-12-01T23:44:55.700Z,100.00
2022-12-01T23:48:58.249Z,100.00
2022-12-01T23:52:58.519Z,100.00
2022-12-01T23:57:01.284Z,100.00
